Time;durP1;ratioP1;P1;durP2;ratioP2;P2;SDS_P1;SDS_P2;PMS_P1;PMS_P2;Temp;Humidity;BMP_temperature;BMP_pressure;BME280_temperature;BME280_humidity;BME280_pressure;Samples;Min_cycle;Max_cycle;Signal;HPM_P1;HPM_P2
2023/11/25 00:01:26;;;;;;;10.63;2.92;;;;;;;4.33;100.00;101147.66;5125219;27;20047;-67
2023/11/25 00:04:14;;;;;;;9.48;2.92;;;;;;;4.36;100.00;101149.06;5128798;27;20044;-66
2023/11/25 00:07:02;;;;;;;9.80;3.28;;;;;;;4.36;100.00;101154.47;5116382;27;20442;-67
2023/11/25 00:09:53;;;;;;;12.35;3.13;;;;;;;4.35;100.00;101152.81;5116924;28;20063;-66
2023/11/25 00:12:41;;;;;;;9.30;2.83;;;;;;;4.33;100.00;101155.75;5113597;28;20552;-65
2023/11/25 00:15:29;;;;;;;10.30;3.05;;;;;;;4.33;100.00;101160.28;5112609;27;20052;-66
2023/11/25 00:18:17;;;;;;;10.02;3.05;;;;;;;4.32;100.00;101166.72;5105083;27;20047;-66
2023/11/25 00:21:06;;;;;;;10.93;2.95;;;;;;;4.30;100.00;101161.53;5099929;28;20043;-66
2023/11/25 00:23:54;;;;;;;7.38;2.55;;;;;;;4.27;100.00;101154.72;5101130;28;20097;-65
2023/11/25 00:26:42;;;;;;;14.80;3.10;;;;;;;4.26;100.00;101152.25;5089833;27;20071;-66
2023/11/25 00:29:30;;;;;;;12.10;3.00;;;;;;;4.26;100.00;101161.16;5089452;28;20039;-67
2023/11/25 00:32:19;;;;;;;8.57;3.03;;;;;;;4.24;100.00;101155.16;5088134;28;20509;-66
2023/11/25 00:35:08;;;;;;;11.65;3.20;;;;;;;4.24;100.00;101163.25;5106841;28;20051;-68
2023/11/25 00:37:56;;;;;;;9.32;3.03;;;;;;;4.26;100.00;101168.44;5106651;28;20052;-65
2023/11/25 00:40:44;;;;;;;12.95;3.47;;;;;;;4.26;100.00;101154.97;5122758;28;20118;-66
2023/11/25 00:43:32;;;;;;;10.52;2.90;;;;;;;4.26;100.00;101166.56;5087794;28;20044;-66
2023/11/25 00:46:21;;;;;;;9.90;3.10;;;;;;;4.25;100.00;101172.16;5103920;27;20039;-66
2023/11/25 00:49:10;;;;;;;10.00;2.85;;;;;;;4.23;100.00;101168.84;5119728;27;20049;-65
2023/11/25 00:51:59;;;;;;;11.43;3.05;;;;;;;4.21;100.00;101161.00;5118806;27;20129;-67
2023/11/25 00:54:47;;;;;;;8.82;2.53;;;;;;;4.21;100.00;101169.09;5118891;27;20042;-68
2023/11/25 00:57:35;;;;;;;7.25;2.63;;;;;;;4.20;100.00;101170.13;5078265;28;20048;-66
2023/11/25 01:00:25;;;;;;;9.52;3.03;;;;;;;4.19;100.00;101173.06;5078217;28;20047;-66
2023/11/25 01:03:13;;;;;;;9.80;3.00;;;;;;;4.18;100.00;101166.00;5076915;28;20404;-68
2023/11/25 01:06:07;;;;;;;13.02;3.40;;;;;;;4.16;100.00;101165.38;5093685;27;20043;-67
2023/11/25 01:08:55;;;;;;;17.63;4.15;;;;;;;4.13;100.00;101163.94;5118443;27;20504;-66
2023/11/25 01:11:43;;;;;;;12.27;3.45;;;;;;;4.10;100.00;101167.06;5131749;27;20122;-66
2023/11/25 01:14:32;;;;;;;12.20;3.30;;;;;;;4.09;100.00;101176.22;5118650;27;20048;-67
2023/11/25 01:17:23;;;;;;;10.13;3.20;;;;;;;4.09;100.00;101184.31;5082651;28;20534;-67
2023/11/25 01:20:13;;;;;;;13.20;3.90;;;;;;;4.11;100.00;101182.19;5112606;28;20056;-67
2023/11/25 01:23:01;;;;;;;18.23;4.18;;;;;;;4.10;100.00;101194.03;5113047;28;20051;-66
2023/11/25 01:25:50;;;;;;;14.15;3.67;;;;;;;4.11;100.00;101197.56;5111293;28;20510;-66
2023/11/25 01:28:38;;;;;;;17.40;4.20;;;;;;;4.10;100.00;101199.44;5057223;28;20135;-67
2023/11/25 01:31:26;;;;;;;12.40;4.00;;;;;;;4.11;100.00;101194.88;5112518;28;20054;-67
2023/11/25 01:34:14;;;;;;;14.07;3.60;;;;;;;4.12;100.00;101193.84;5103151;28;20067;-67
2023/11/25 01:37:02;;;;;;;16.70;3.70;;;;;;;4.14;100.00;101200.66;5076864;28;20048;-66
2023/11/25 01:39:50;;;;;;;15.98;3.80;;;;;;;4.15;100.00;101196.09;5077205;28;20119;-67
2023/11/25 01:42:38;;;;;;;14.85;3.78;;;;;;;4.17;100.00;101197.53;5063918;28;20059;-67
2023/11/25 01:45:27;;;;;;;15.70;3.97;;;;;;;4.16;100.00;101201.28;5087667;28;20047;-67
2023/11/25 01:48:15;;;;;;;13.52;4.10;;;;;;;4.14;100.00;101200.66;5081535;28;20532;-66
2023/11/25 01:51:03;;;;;;;11.25;3.17;;;;;;;4.14;100.00;101200.66;5082854;28;20044;-67
2023/11/25 01:53:51;;;;;;;12.20;3.70;;;;;;;4.13;100.00;101196.28;5069426;28;20487;-67
2023/11/25 01:56:39;;;;;;;16.20;3.90;;;;;;;4.14;100.00;101189.88;5107667;28;20135;-66
2023/11/25 01:59:28;;;;;;;11.52;3.35;;;;;;;4.19;100.00;101195.44;5090770;28;20044;-67
2023/11/25 02:02:20;;;;;;;12.88;3.50;;;;;;;4.24;100.00;101194.81;5091750;28;20059;-67
2023/11/25 02:05:08;;;;;;;11.60;4.05;;;;;;;4.27;100.00;101192.47;5105531;28;20411;-67
2023/11/25 02:07:56;;;;;;;11.18;3.33;;;;;;;4.30;100.00;101188.53;5097884;28;20044;-66
2023/11/25 02:10:45;;;;;;;12.38;3.10;;;;;;;4.33;100.00;101198.03;5097188;28;20048;-67
2023/11/25 02:13:33;;;;;;;9.60;2.97;;;;;;;4.36;100.00;101193.06;5097836;28;20491;-67
2023/11/25 02:16:21;;;;;;;10.52;3.25;;;;;;;4.37;100.00;101196.56;5111735;28;20047;-68
2023/11/25 02:19:09;;;;;;;10.43;3.30;;;;;;;4.40;100.00;101198.84;5082534;28;20055;-67
2023/11/25 02:21:57;;;;;;;12.18;3.65;;;;;;;4.42;100.00;101202.13;5087229;28;20051;-67
2023/11/25 02:24:47;;;;;;;11.65;3.33;;;;;;;4.43;100.00;101210.03;5103679;27;20039;-67
2023/11/25 02:27:35;;;;;;;13.88;3.10;;;;;;;4.44;100.00;101217.06;5120956;27;20490;-67
2023/11/25 02:30:23;;;;;;;13.40;3.45;;;;;;;4.47;100.00;101218.50;5121216;27;20115;-67
2023/11/25 02:33:12;;;;;;;10.82;3.33;;;;;;;4.46;100.00;101216.88;5120941;27;20050;-67
2023/11/25 02:36:00;;;;;;;9.60;2.78;;;;;;;4.45;100.00;101213.34;5109151;28;20119;-67
2023/11/25 02:38:49;;;;;;;14.80;3.95;;;;;;;4.45;100.00;101217.91;5100562;28;20055;-66
2023/11/25 02:41:37;;;;;;;12.55;4.00;;;;;;;4.45;100.00;101218.75;5086868;28;20071;-66
2023/11/25 02:44:27;;;;;;;11.30;3.78;;;;;;;4.51;100.00;101217.03;5113906;28;20040;-66
2023/11/25 02:47:15;;;;;;;10.98;2.80;;;;;;;4.57;100.00;101215.31;5099881;28;20043;-66
2023/11/25 02:50:04;;;;;;;9.25;2.97;;;;;;;4.60;100.00;101210.31;5100984;28;20180;-66
2023/11/25 02:52:52;;;;;;;12.60;3.28;;;;;;;4.64;100.00;101211.56;5099718;28;20184;-66
2023/11/25 02:55:40;;;;;;;12.18;3.00;;;;;;;4.67;100.00;101204.88;5114827;28;20065;-66
2023/11/25 02:58:32;;;;;;;11.35;3.15;;;;;;;4.68;100.00;101203.81;5097466;28;20040;-67
2023/11/25 03:01:23;;;;;;;13.30;2.80;;;;;;;4.67;100.00;101194.91;5099716;28;20051;-66
2023/11/25 03:04:11;;;;;;;10.40;3.50;;;;;;;4.65;100.00;101201.56;5102285;28;20067;-66
2023/11/25 03:07:04;;;;;;;11.02;3.08;;;;;;;4.64;100.00;101194.50;5085885;28;20291;-66
2023/11/25 03:09:52;;;;;;;9.50;3.33;;;;;;;4.63;100.00;101195.56;5093284;27;20043;-66
2023/11/25 03:12:44;;;;;;;13.68;3.58;;;;;;;4.60;100.00;101199.53;5120204;27;20057;-68
2023/11/25 03:15:37;;;;;;;10.93;3.50;;;;;;;4.56;100.00;101192.09;5109272;28;20047;-66
2023/11/25 03:18:26;;;;;;;11.05;3.90;;;;;;;4.50;100.00;101188.41;5085590;28;20051;-65
2023/11/25 03:21:18;;;;;;;11.27;3.95;;;;;;;4.45;100.00;101189.06;5094017;27;20048;-66
2023/11/25 03:24:07;;;;;;;12.63;3.75;;;;;;;4.40;100.00;101185.34;5119754;27;20070;-67
2023/11/25 03:26:57;;;;;;;9.13;3.38;;;;;;;4.32;100.00;101191.81;5109472;28;20044;-67
2023/11/25 03:29:46;;;;;;;11.45;3.40;;;;;;;4.31;100.00;101200.16;5099543;28;20047;-66
2023/11/25 03:32:34;;;;;;;12.32;3.30;;;;;;;4.30;100.00;101198.50;5100523;28;20083;-68
2023/11/25 03:35:23;;;;;;;12.88;3.72;;;;;;;4.29;100.00;101188.75;5122661;27;20414;-66
2023/11/25 03:38:11;;;;;;;12.65;3.28;;;;;;;4.29;100.00;101183.38;5065103;28;20044;-66
2023/11/25 03:40:59;;;;;;;9.60;3.58;;;;;;;4.31;100.00;101192.06;5091961;28;20098;-66
2023/11/25 03:43:47;;;;;;;10.95;3.33;;;;;;;4.31;100.00;101195.59;5064765;28;20051;-66
2023/11/25 03:46:35;;;;;;;15.20;3.72;;;;;;;4.27;100.00;101189.78;5105390;27;20043;-67
2023/11/25 03:49:24;;;;;;;12.52;3.53;;;;;;;4.27;100.00;101192.47;5134260;27;20130;-66
2023/11/25 03:52:13;;;;;;;12.75;3.63;;;;;;;4.29;100.00;101191.44;5134541;27;20518;-66
2023/11/25 03:55:03;;;;;;;15.68;4.15;;;;;;;4.27;100.00;101191.66;5104376;28;20039;-66
2023/11/25 03:57:51;;;;;;;14.77;3.95;;;;;;;4.26;100.00;101180.06;5086388;28;20134;-66
2023/11/25 04:00:38;;;;;;;12.48;3.30;;;;;;;4.26;100.00;101181.94;5112548;27;20046;-66
2023/11/25 04:03:26;;;;;;;13.63;3.78;;;;;;;4.23;100.00;101185.03;5113345;28;20134;-66
2023/11/25 04:06:14;;;;;;;14.60;3.97;;;;;;;4.22;100.00;101188.78;5083766;28;20055;-67
2023/11/25 04:09:03;;;;;;;13.88;3.50;;;;;;;4.22;100.00;101195.00;5099847;28;20039;-66
2023/11/25 04:11:52;;;;;;;11.40;3.83;;;;;;;4.22;100.00;101191.50;5123414;27;20035;-66
2023/11/25 04:14:40;;;;;;;17.20;3.50;;;;;;;4.23;100.00;101199.38;5084319;28;20160;-66
2023/11/25 04:17:28;;;;;;;13.70;3.60;;;;;;;4.28;100.00;101193.31;5098775;28;20083;-65
2023/11/25 04:20:28;;;;;;;14.48;4.07;;;;;;;4.33;100.00;101198.03;5113715;28;20058;-65
2023/11/25 04:23:19;;;;;;;10.43;4.22;;;;;;;4.32;100.00;101196.41;5100367;28;20503;-66
2023/11/25 04:26:07;;;;;;;17.15;4.00;;;;;;;4.32;100.00;101197.22;5086748;28;20101;-65
2023/11/25 04:28:55;;;;;;;20.77;4.03;;;;;;;4.31;100.00;101198.28;5088955;28;20040;-65
2023/11/25 04:31:43;;;;;;;16.48;3.75;;;;;;;4.29;100.00;101191.44;5087827;28;20093;-66
2023/11/25 04:34:31;;;;;;;14.98;4.53;;;;;;;4.30;100.00;101193.91;5099898;28;20453;-65
2023/11/25 04:37:19;;;;;;;13.98;3.85;;;;;;;4.32;100.00;101194.53;5119876;28;20051;-65
2023/11/25 04:40:08;;;;;;;13.18;3.67;;;;;;;4.37;100.00;101196.56;5107979;28;20107;-63
2023/11/25 04:42:56;;;;;;;12.70;4.15;;;;;;;4.37;100.00;101199.28;5115271;28;20048;-65
2023/11/25 04:45:44;;;;;;;15.10;3.63;;;;;;;4.37;100.00;101210.06;5111977;28;20409;-65
2023/11/25 04:48:34;;;;;;;19.08;3.90;;;;;;;4.37;100.00;101215.47;5113321;28;20089;-66
2023/11/25 04:51:23;;;;;;;13.85;4.15;;;;;;;4.29;100.00;101207.63;5100801;28;20094;-66
2023/11/25 04:54:11;;;;;;;15.75;4.40;;;;;;;4.21;100.00;101206.84;5104901;27;20051;-65
2023/11/25 04:57:01;;;;;;;18.23;4.50;;;;;;;4.18;100.00;101201.88;5105226;28;20154;-66
2023/11/25 04:59:49;;;;;;;15.20;4.10;;;;;;;4.21;100.00;101209.53;5115180;28;20173;-64
2023/11/25 05:02:43;;;;;;;14.10;3.60;;;;;;;4.23;100.00;101209.31;5104666;28;20059;-68
2023/11/25 05:05:32;;;;;;;15.75;3.50;;;;;;;4.23;100.00;101212.84;5123574;28;20066;-65
2023/11/25 05:08:21;;;;;;;12.50;3.35;;;;;;;4.26;100.00;101223.22;5106181;28;20578;-66
2023/11/25 05:11:09;;;;;;;11.98;3.20;;;;;;;4.30;100.00;101212.78;5111443;28;20491;-66
2023/11/25 05:13:58;;;;;;;11.80;3.13;;;;;;;4.34;100.00;101200.53;5091000;27;20467;-66
2023/11/25 05:16:46;;;;;;;10.90;2.83;;;;;;;4.38;100.00;101198.25;5082892;28;20044;-66
2023/11/25 05:19:36;;;;;;;9.57;3.00;;;;;;;4.39;100.00;101208.81;5068648;28;20046;-65
2023/11/25 05:22:28;;;;;;;9.15;2.78;;;;;;;4.40;100.00;101206.91;5110485;28;20058;-67
2023/11/25 05:25:16;;;;;;;12.32;2.83;;;;;;;4.41;100.00;101193.22;5098144;28;20043;-66
2023/11/25 05:28:04;;;;;;;8.77;2.65;;;;;;;4.42;100.00;101200.25;5112287;28;20055;-67
2023/11/25 05:30:52;;;;;;;8.60;2.38;;;;;;;4.43;100.00;101207.34;5098241;28;20050;-66
2023/11/25 05:33:40;;;;;;;7.80;2.40;;;;;;;4.45;100.00;101209.81;5110345;28;20046;-66
2023/11/25 05:36:28;;;;;;;11.70;2.80;;;;;;;4.47;100.00;101226.59;5111295;28;20071;-66
2023/11/25 05:39:20;;;;;;;10.70;2.90;;;;;;;4.45;100.00;101250.28;5112009;28;20066;-66
2023/11/25 05:42:08;;;;;;;10.98;2.75;;;;;;;4.44;100.00;101252.13;5098769;28;20130;-67
2023/11/25 05:44:56;;;;;;;12.90;3.15;;;;;;;4.43;100.00;101238.88;5100045;28;20044;-66
2023/11/25 05:47:46;;;;;;;9.10;2.65;;;;;;;4.38;100.00;101219.81;5120876;28;20043;-68
2023/11/25 05:50:35;;;;;;;10.98;3.00;;;;;;;4.36;100.00;101230.00;5118364;28;20134;-66
2023/11/25 05:53:23;;;;;;;9.50;2.22;;;;;;;4.35;100.00;101169.00;5102265;28;20051;-67
2023/11/25 05:56:11;;;;;;;8.07;2.30;;;;;;;4.32;100.00;101191.81;5098389;28;20055;-67
2023/11/25 05:58:59;;;;;;;8.77;2.50;;;;;;;4.30;100.00;101195.78;5109036;27;20180;-66
2023/11/25 06:01:47;;;;;;;7.95;2.90;;;;;;;4.31;100.00;101187.50;5122077;27;20047;-67
2023/11/25 06:04:35;;;;;;;9.60;3.10;;;;;;;4.30;100.00;101171.50;5115010;28;20039;-67
2023/11/25 06:07:24;;;;;;;8.30;2.38;;;;;;;4.31;100.00;101163.22;5116485;28;20120;-66
2023/11/25 06:10:12;;;;;;;7.93;2.83;;;;;;;4.31;100.00;101162.41;5105162;27;20043;-67
2023/11/25 06:13:00;;;;;;;10.20;2.63;;;;;;;4.35;100.00;101169.00;5108132;28;20043;-69
2023/11/25 06:15:48;;;;;;;10.63;2.67;;;;;;;4.36;100.00;101162.56;5066581;28;20052;-68
2023/11/25 06:18:36;;;;;;;10.40;2.60;;;;;;;4.37;100.00;101156.09;5113496;27;20111;-67
2023/11/25 06:21:26;;;;;;;6.80;2.42;;;;;;;4.38;100.00;101152.38;5136207;27;20105;-68
2023/11/25 06:24:17;;;;;;;9.60;2.65;;;;;;;4.39;100.00;101165.63;5091255;28;20044;-67
2023/11/25 06:27:05;;;;;;;7.53;2.58;;;;;;;4.41;100.00;101162.72;5116040;28;20047;-67
2023/11/25 06:29:53;;;;;;;10.45;2.75;;;;;;;4.41;100.00;101163.56;5114692;28;20047;-66
2023/11/25 06:32:41;;;;;;;9.57;2.40;;;;;;;4.43;100.00;101166.88;5114865;28;20036;-66
2023/11/25 06:35:29;;;;;;;15.93;3.10;;;;;;;4.44;100.00;101167.69;5100244;28;20035;-65
2023/11/25 06:38:17;;;;;;;8.38;2.58;;;;;;;4.43;100.00;101160.66;5107196;27;20516;-67
2023/11/25 06:41:07;;;;;;;7.93;2.50;;;;;;;4.42;100.00;101158.97;5136243;27;20562;-66
2023/11/25 06:43:55;;;;;;;9.07;2.70;;;;;;;4.40;100.00;101171.84;5115789;27;20043;-67
2023/11/25 06:46:44;;;;;;;7.85;2.53;;;;;;;4.35;100.00;101169.00;5101082;28;20128;-67
2023/11/25 06:49:32;;;;;;;9.65;3.03;;;;;;;4.34;100.00;101170.03;5114286;27;20062;-66
2023/11/25 06:52:20;;;;;;;9.57;2.78;;;;;;;4.34;100.00;101170.03;5109320;28;20067;-66
2023/11/25 06:55:09;;;;;;;9.05;3.10;;;;;;;4.36;100.00;101176.06;5100689;28;20055;-66
2023/11/25 06:57:58;;;;;;;11.25;2.70;;;;;;;4.36;100.00;101160.69;5122059;27;20055;-67
2023/11/25 07:00:46;;;;;;;7.93;2.58;;;;;;;4.35;100.00;101155.50;5111758;28;20169;-67
2023/11/25 07:03:34;;;;;;;10.40;2.85;;;;;;;4.37;100.00;101150.72;5114309;28;20146;-67
2023/11/25 07:06:23;;;;;;;9.50;2.88;;;;;;;4.39;100.00;101138.66;5086313;28;20043;-67
2023/11/25 07:09:13;;;;;;;8.20;2.72;;;;;;;4.38;100.00;101136.19;5115420;27;20555;-67
2023/11/25 07:12:04;;;;;;;9.85;3.10;;;;;;;4.40;100.00;101136.78;5114703;28;20046;-66
2023/11/25 07:14:52;;;;;;;12.27;3.13;;;;;;;4.39;100.00;101145.94;5114982;28;20040;-67
2023/11/25 07:17:40;;;;;;;11.00;3.17;;;;;;;4.39;100.00;101144.06;5084969;28;20054;-67
2023/11/25 07:20:29;;;;;;;10.80;2.92;;;;;;;4.40;100.00;101129.53;5103902;27;20402;-67
2023/11/25 07:23:18;;;;;;;11.23;3.13;;;;;;;4.40;100.00;101139.47;5080825;28;20097;-69
2023/11/25 07:26:07;;;;;;;11.32;3.00;;;;;;;4.39;100.00;101141.34;5094084;28;20058;-67
2023/11/25 07:28:56;;;;;;;9.50;3.22;;;;;;;4.33;100.00;101139.56;5094129;28;20061;-68
2023/11/25 07:31:44;;;;;;;15.65;3.60;;;;;;;4.32;100.00;101137.06;5074553;28;20173;-66
2023/11/25 07:34:32;;;;;;;12.52;2.92;;;;;;;4.27;100.00;101138.53;5098855;28;20522;-66
2023/11/25 07:37:22;;;;;;;12.85;3.30;;;;;;;4.28;100.00;101136.66;5038785;28;20063;-67
2023/11/25 07:40:14;;;;;;;10.90;3.00;;;;;;;4.33;100.00;101133.31;5094688;28;20063;-66
2023/11/25 07:43:04;;;;;;;12.98;3.03;;;;;;;4.38;100.00;101142.41;5103213;27;20406;-67
2023/11/25 07:45:52;;;;;;;8.98;2.97;;;;;;;4.39;100.00;101135.16;5087767;28;20526;-68
2023/11/25 07:48:40;;;;;;;9.20;2.95;;;;;;;4.40;100.00;101145.72;5100141;28;20089;-67
2023/11/25 07:51:29;;;;;;;8.10;2.67;;;;;;;4.39;100.00;101143.22;5113931;28;20419;-67
2023/11/25 07:54:18;;;;;;;10.75;3.10;;;;;;;4.39;100.00;101140.53;5114398;27;20411;-67
2023/11/25 07:57:06;;;;;;;9.75;3.78;;;;;;;4.41;100.00;101146.53;5105824;27;20047;-67
2023/11/25 07:59:55;;;;;;;9.93;2.58;;;;;;;4.42;100.00;101142.78;5118331;27;20043;-66
2023/11/25 08:02:43;;;;;;;10.68;2.92;;;;;;;4.41;100.00;101149.25;5099359;28;20036;-65
2023/11/25 08:05:32;;;;;;;9.82;3.58;;;;;;;4.43;100.00;101149.84;5080356;28;20039;-66
2023/11/25 08:08:20;;;;;;;11.05;2.97;;;;;;;4.45;100.00;101145.06;5098891;28;20039;-66
2023/11/25 08:11:08;;;;;;;11.20;3.47;;;;;;;4.42;100.00;101142.78;5098487;28;20062;-66
2023/11/25 08:13:56;;;;;;;9.75;3.13;;;;;;;4.41;100.00;101146.53;5111866;28;20126;-66
2023/11/25 08:16:47;;;;;;;8.93;2.30;;;;;;;4.40;100.00;101136.78;5084665;28;20047;-67
2023/11/25 08:19:35;;;;;;;12.52;2.70;;;;;;;4.41;100.00;101141.16;5112716;28;20047;-66
2023/11/25 08:22:24;;;;;;;7.25;2.60;;;;;;;4.44;100.00;101146.09;5111472;28;20126;-66
2023/11/25 08:25:12;;;;;;;12.70;3.55;;;;;;;4.48;100.00;101158.13;5109053;27;20043;-65
2023/11/25 08:28:00;;;;;;;8.18;2.97;;;;;;;4.51;100.00;101140.66;5119047;27;20130;-66
2023/11/25 08:30:48;;;;;;;10.73;2.67;;;;;;;4.57;100.00;101148.72;5111215;27;20388;-66
2023/11/25 08:33:36;;;;;;;9.15;2.67;;;;;;;4.58;100.00;101154.94;5117380;27;20518;-66
2023/11/25 08:36:24;;;;;;;9.75;2.78;;;;;;;4.59;100.00;101154.69;5093791;28;20136;-66
2023/11/25 08:39:13;;;;;;;8.35;2.35;;;;;;;4.61;100.00;101162.56;5092556;28;20067;-66
2023/11/25 08:42:02;;;;;;;8.10;2.22;;;;;;;4.61;100.00;101139.09;5109395;28;20055;-66
2023/11/25 08:44:51;;;;;;;6.28;2.17;;;;;;;4.60;100.00;101139.34;5099482;28;20120;-66
2023/11/25 08:47:41;;;;;;;11.90;3.50;;;;;;;4.63;100.00;101144.28;5100748;28;20559;-66
2023/11/25 08:50:30;;;;;;;10.27;2.88;;;;;;;4.64;100.00;101146.78;5099764;28;20058;-67
2023/11/25 08:53:18;;;;;;;11.63;3.53;;;;;;;4.64;100.00;101145.94;5104683;28;20040;-67
2023/11/25 08:56:06;;;;;;;12.20;2.85;;;;;;;4.65;100.00;101158.41;5111274;28;20055;-67
2023/11/25 08:58:55;;;;;;;8.77;2.50;;;;;;;4.65;100.00;101158.41;5096573;28;20137;-67
2023/11/25 09:01:57;;;;;;;10.40;3.20;;;;;;;4.64;100.00;101154.88;5094602;28;20044;-67
2023/11/25 09:04:45;;;;;;;10.30;2.90;;;;;;;4.64;100.00;101146.78;5067325;28;20507;-66
2023/11/25 09:07:44;;;;;;;10.70;3.10;;;;;;;4.65;100.00;101153.00;5093447;28;20044;-67
2023/11/25 09:10:34;;;;;;;9.43;2.90;;;;;;;4.65;100.00;101156.50;5077055;28;20044;-67
2023/11/25 09:13:22;;;;;;;9.45;2.60;;;;;;;4.68;100.00;101147.97;5065151;28;20178;-68
2023/11/25 09:16:10;;;;;;;9.20;2.50;;;;;;;4.69;100.00;101149.63;5082481;28;20052;-67
2023/11/25 09:18:58;;;;;;;11.90;2.80;;;;;;;4.73;100.00;101151.88;5096390;28;20043;-66
2023/11/25 09:21:47;;;;;;;11.45;3.05;;;;;;;4.77;100.00;101150.41;5095131;28;20047;-64
2023/11/25 09:24:35;;;;;;;12.23;3.42;;;;;;;4.80;100.00;101147.25;5107869;28;20143;-67
2023/11/25 09:27:24;;;;;;;16.23;3.75;;;;;;;4.85;100.00;101152.81;5098483;28;20036;-64
2023/11/25 09:30:13;;;;;;;8.82;3.00;;;;;;;4.87;100.00;101145.31;5103199;28;20116;-64
2023/11/25 09:33:01;;;;;;;22.30;6.00;;;;;;;4.93;100.00;101152.53;5077950;28;20115;-70
2023/11/25 09:35:49;;;;;;;8.40;2.85;;;;;;;4.98;100.00;101163.50;5131005;27;20104;-66
2023/11/25 09:38:37;;;;;;;7.88;2.53;;;;;;;4.99;100.00;101158.91;5070290;28;20178;-67
2023/11/25 09:41:25;;;;;;;8.52;3.08;;;;;;;4.99;100.00;101157.03;5054649;28;20087;-67
2023/11/25 09:44:14;;;;;;;10.90;2.90;;;;;;;5.01;100.00;101151.44;5084276;28;20044;-67
2023/11/25 09:47:02;;;;;;;11.25;3.22;;;;;;;5.15;100.00;101152.09;5104174;28;20059;-68
2023/11/25 09:49:50;;;;;;;11.00;3.15;;;;;;;5.18;100.00;101146.28;5109254;28;20528;-69
2023/11/25 09:52:52;;;;;;;13.18;3.47;;;;;;;5.17;100.00;101150.00;5098159;28;20524;-67
2023/11/25 09:55:59;;;;;;;10.95;3.20;;;;;;;5.16;100.00;101148.38;5083144;28;20492;-66
2023/11/25 09:58:48;;;;;;;13.40;2.80;;;;;;;5.19;100.00;101150.59;4384680;28;10000702;-65
2023/11/25 10:01:36;;;;;;;11.50;3.50;;;;;;;5.21;100.00;101152.03;5079100;28;20052;-68
2023/11/25 10:04:29;;;;;;;9.68;2.70;;;;;;;5.22;100.00;101147.44;5050974;28;20044;-68
2023/11/25 10:07:17;;;;;;;8.65;2.75;;;;;;;5.24;100.00;101131.84;5064553;28;20048;-67
2023/11/25 10:10:07;;;;;;;9.17;2.53;;;;;;;5.25;100.00;101136.22;5083438;28;20471;-67
2023/11/25 10:12:55;;;;;;;8.77;2.65;;;;;;;5.27;100.00;101140.34;5081910;28;20656;-67
2023/11/25 10:15:47;;;;;;;9.60;2.50;;;;;;;5.31;100.00;101140.69;5077859;28;20086;-67
2023/11/25 10:18:40;;;;;;;7.55;2.33;;;;;;;5.32;100.00;101129.69;5084131;28;20046;-67
2023/11/25 10:21:28;;;;;;;15.20;2.70;;;;;;;5.36;100.00;101130.03;5072679;28;20089;-66
2023/11/25 10:24:20;;;;;;;14.57;3.72;;;;;;;5.38;100.00;101144.16;5077573;28;20146;-67
2023/11/25 10:27:09;;;;;;;8.30;2.55;;;;;;;5.40;100.00;101147.47;5051878;28;20044;-65
2023/11/25 10:29:58;;;;;;;9.40;2.60;;;;;;;5.40;100.00;101146.66;5093848;28;20120;-66
2023/11/25 10:32:49;;;;;;;7.88;2.58;;;;;;;5.39;100.00;101126.06;5063232;28;20135;-67
2023/11/25 10:35:37;;;;;;;8.80;2.72;;;;;;;5.36;100.00;101135.44;5076395;28;20640;-66
2023/11/25 10:38:27;;;;;;;11.85;3.35;;;;;;;5.33;100.00;101123.22;5092496;28;20060;-67
2023/11/25 10:41:16;;;;;;;8.75;2.85;;;;;;;5.36;100.00;101127.34;5050037;28;20044;-66
2023/11/25 10:44:13;;;;;;;9.95;2.67;;;;;;;5.39;100.00;101126.91;5071557;28;20040;-67
2023/11/25 10:47:04;;;;;;;11.68;2.90;;;;;;;5.44;100.00;101118.13;5055990;28;20048;-67
2023/11/25 10:49:52;;;;;;;9.10;2.60;;;;;;;5.48;100.00;101119.31;5078367;28;20507;-66
2023/11/25 10:52:43;;;;;;;16.08;2.92;;;;;;;5.52;100.00;101121.31;5088058;28;20496;-66
2023/11/25 10:55:32;;;;;;;9.63;2.83;;;;;;;5.53;100.00;101120.28;5063597;28;20189;-67
2023/11/25 10:58:20;;;;;;;11.50;3.67;;;;;;;5.53;100.00;101123.00;5093388;28;20047;-68
2023/11/25 11:01:09;;;;;;;12.77;3.70;;;;;;;5.52;100.00;101126.72;5105495;28;20051;-68
2023/11/25 11:04:23;;;;;;;11.82;3.15;;;;;;;5.52;100.00;101112.41;5107508;28;20116;-67
2023/11/25 11:07:15;;;;;;;9.02;3.25;;;;;;;5.51;100.00;101103.47;5083499;28;20048;-66
2023/11/25 11:10:10;;;;;;;11.80;3.35;;;;;;;5.51;100.00;101108.88;5095580;28;20086;-66
2023/11/25 11:13:04;;;;;;;12.73;3.42;;;;;;;5.51;100.00;101102.66;5122315;27;20047;-65
2023/11/25 11:15:55;;;;;;;10.32;2.88;;;;;;;5.53;100.00;101106.78;5116966;27;20062;-65
2023/11/25 11:18:43;;;;;;;14.38;3.58;;;;;;;5.57;100.00;101106.31;5101322;27;20047;-65
2023/11/25 11:21:37;;;;;;;15.68;3.67;;;;;;;5.60;100.00;101095.03;5117233;27;20542;-65
2023/11/25 11:24:37;;;;;;;11.15;3.42;;;;;;;5.66;100.00;101096.84;5112161;28;20124;-66
2023/11/25 11:27:40;;;;;;;11.93;3.22;;;;;;;5.70;100.00;101098.88;5096394;28;20079;-65
2023/11/25 11:30:42;;;;;;;12.18;3.30;;;;;;;5.74;100.00;101104.63;5094805;28;20046;-66
2023/11/25 11:33:30;;;;;;;14.95;3.50;;;;;;;5.77;100.00;101106.88;5102789;28;20219;-65
2023/11/25 11:36:29;;;;;;;13.57;3.47;;;;;;;5.83;100.00;101099.72;5111946;27;20648;-66
2023/11/25 11:39:37;;;;;;;13.63;3.63;;;;;;;5.89;100.00;101107.75;5096289;27;20716;-65
2023/11/25 11:42:27;;;;;;;15.25;3.50;;;;;;;5.96;100.00;101104.97;5094206;28;20166;-65
2023/11/25 11:45:21;;;;;;;13.70;3.58;;;;;;;6.00;100.00;101102.63;5108921;28;20055;-66
2023/11/25 11:48:13;;;;;;;12.50;3.80;;;;;;;6.05;100.00;101111.69;5082435;27;20058;-66
2023/11/25 11:51:02;;;;;;;14.40;3.80;;;;;;;6.08;100.00;101097.72;5116747;27;20051;-65
2023/11/25 11:54:19;;;;;;;11.88;3.45;;;;;;;6.09;100.00;101107.50;5104947;28;20600;-66
2023/11/25 11:57:13;;;;;;;11.60;3.20;;;;;;;6.08;100.00;101107.72;5061686;28;20577;-66
2023/11/25 12:00:13;;;;;;;11.48;3.13;;;;;;;6.08;100.00;101122.06;5042594;28;20186;-65
2023/11/25 12:03:01;;;;;;;18.80;4.10;;;;;;;6.08;100.00;101121.22;5081181;28;20119;-66
2023/11/25 12:05:51;;;;;;;19.75;4.10;;;;;;;6.09;100.00;101109.38;5075075;28;20060;-66
2023/11/25 12:08:39;;;;;;;17.58;4.00;;;;;;;6.07;100.00;101108.78;5068692;28;20186;-65
2023/11/25 12:11:27;;;;;;;15.35;3.75;;;;;;;6.03;100.00;101104.88;5068857;28;20067;-66
2023/11/25 12:14:15;;;;;;;17.33;4.00;;;;;;;6.01;100.00;101101.56;5065807;28;20093;-65
2023/11/25 12:17:03;;;;;;;15.27;4.30;;;;;;;6.01;100.00;101102.38;5077028;28;20120;-65
2023/11/25 12:19:55;;;;;;;17.50;4.03;;;;;;;6.02;100.00;101090.53;5092246;28;20058;-65
2023/11/25 12:22:43;;;;;;;12.02;3.78;;;;;;;6.07;100.00;101095.25;5074289;28;20056;-67
2023/11/25 12:25:32;;;;;;;16.45;4.65;;;;;;;6.09;100.00;101093.97;5075218;28;20063;-66
2023/11/25 12:28:21;;;;;;;19.30;3.95;;;;;;;6.10;100.00;101089.38;5075015;28;20048;-66
2023/11/25 12:31:10;;;;;;;17.60;3.85;;;;;;;6.11;100.00;101083.75;5089442;28;20044;-66
2023/11/25 12:34:01;;;;;;;14.00;4.03;;;;;;;6.11;100.00;101085.59;5087915;28;20048;-65
2023/11/25 12:36:50;;;;;;;13.15;3.88;;;;;;;6.14;100.00;101094.09;5122274;27;20419;-65
2023/11/25 12:39:41;;;;;;;11.77;3.47;;;;;;;6.15;100.00;101086.78;5108519;28;20173;-65
2023/11/25 12:42:29;;;;;;;15.65;4.43;;;;;;;6.15;100.00;101078.69;5094649;28;20055;-66
2023/11/25 12:45:30;;;;;;;18.42;4.55;;;;;;;6.15;100.00;101093.03;5102824;27;20047;-66
2023/11/25 12:48:30;;;;;;;16.92;4.18;;;;;;;6.14;100.00;101075.16;5074846;28;20044;-66
2023/11/25 12:51:19;;;;;;;16.33;4.15;;;;;;;6.18;100.00;101086.31;5088811;28;20393;-66
2023/11/25 12:54:09;;;;;;;18.02;3.83;;;;;;;6.21;100.00;101071.53;5066016;28;20125;-65
2023/11/25 12:56:58;;;;;;;16.58;4.55;;;;;;;6.26;100.00;101088.72;5088938;28;20063;-66
2023/11/25 12:59:46;;;;;;;16.73;4.18;;;;;;;6.30;100.00;101083.63;5074386;28;20500;-64
2023/11/25 13:02:37;;;;;;;21.65;4.43;;;;;;;6.36;100.00;101072.72;5074778;28;20171;-64